createdAt,value
2022-10-05T00:04:12.093Z,101233.16
2022-10-05T00:14:27.943Z,101228.69
2022-10-05T00:24:30.606Z,101226.97
2022-10-05T00:34:35.172Z,101224.03
2022-10-05T00:45:05.536Z,101223.94
2022-10-05T00:55:26.079Z,101214.16
2022-10-05T01:05:33.648Z,101206.19
2022-10-05T01:15:43.221Z,101236.91
2022-10-05T01:26:36.121Z,101251.78
2022-10-05T01:36:44.544Z,101254.88
2022-10-05T01:47:09.585Z,101255.53
2022-10-05T01:57:12.151Z,101255.28
2022-10-05T02:07:36.765Z,101255.84
2022-10-05T02:18:04.524Z,101269.69
2022-10-05T02:28:14.318Z,101274.28
2022-10-05T02:38:56.154Z,101273.38
2022-10-05T02:49:24.378Z,101276.94
2022-10-05T02:59:38.902Z,101290.97
2022-10-05T03:10:01.208Z,101282.56
2022-10-05T03:20:18.440Z,101267.22
2022-10-05T03:30:22.984Z,101263.31
2022-10-05T03:40:43.288Z,101263.41
2022-10-05T03:51:21.283Z,101283.69
2022-10-05T04:01:32.503Z,101292.78
2022-10-05T04:11:40.520Z,101294.69
2022-10-05T04:21:52.510Z,101292.72
2022-10-05T04:32:23.651Z,101285.88
2022-10-05T04:42:38.311Z,101299.09
2022-10-05T04:53:13.602Z,101300.50
2022-10-05T05:03:32.557Z,101285.28
2022-10-05T05:14:14.192Z,101284.19
2022-10-05T05:24:36.617Z,101289.97
2022-10-05T05:35:01.996Z,101294.25
2022-10-05T05:45:17.753Z,101317.47
2022-10-05T05:55:41.622Z,101326.16
2022-10-05T06:05:54.037Z,101353.59
2022-10-05T06:16:18.935Z,101385.84
2022-10-05T06:26:44.745Z,101409.19
2022-10-05T06:36:53.159Z,101406.97
2022-10-05T06:47:20.922Z,101402.81
2022-10-05T06:57:32.361Z,101409.00
2022-10-05T07:07:51.536Z,101443.59
2022-10-05T07:18:09.129Z,101428.22
2022-10-05T07:28:33.432Z,101435.78
2022-10-05T07:38:42.203Z,101445.06
2022-10-05T07:49:05.127Z,101439.72
2022-10-05T07:59:25.445Z,101443.59
2022-10-05T08:09:33.023Z,101447.56
2022-10-05T08:19:46.956Z,101412.09
2022-10-05T08:29:56.912Z,101404.16
2022-10-05T08:40:43.224Z,101404.84
2022-10-05T08:51:07.698Z,101401.03
2022-10-05T09:01:44.193Z,101396.91
2022-10-05T09:12:22.775Z,101425.34
2022-10-05T09:22:39.546Z,101425.19
2022-10-05T09:33:08.560Z,101426.66
2022-10-05T09:43:45.109Z,101423.84
2022-10-05T09:54:07.367Z,101419.91
2022-10-05T10:04:26.665Z,101421.22
2022-10-05T10:14:53.055Z,101408.25
2022-10-05T10:25:19.608Z,101407.63
2022-10-05T10:46:07.169Z,101415.56
2022-10-05T10:56:43.701Z,101413.44
2022-10-05T11:17:06.899Z,101404.50
2022-10-05T11:27:44.318Z,101406.56
2022-10-05T11:38:13.471Z,101381.94
2022-10-05T11:48:43.033Z,101369.56
2022-10-05T11:59:28.980Z,101360.22
2022-10-05T12:10:14.851Z,101355.44
2022-10-05T12:20:30.468Z,101358.66
2022-10-05T12:30:49.318Z,101353.78
2022-10-05T12:41:22.519Z,101332.09
2022-10-05T12:51:46.204Z,101322.06
2022-10-05T13:01:50.849Z,101315.56
2022-10-05T13:11:58.720Z,101315.28
2022-10-05T13:22:01.807Z,101309.16
2022-10-05T13:32:10.280Z,101302.53
2022-10-05T13:42:51.028Z,101297.44
2022-10-05T13:53:24.622Z,101290.44
2022-10-05T14:03:37.958Z,101307.19
2022-10-05T14:13:46.884Z,101302.63
2022-10-05T14:23:52.079Z,101298.53
2022-10-05T14:33:53.710Z,101303.44
2022-10-05T14:44:17.718Z,101297.16
2022-10-05T14:54:47.047Z,101302.47
2022-10-05T15:05:08.236Z,101287.97
2022-10-05T15:15:28.835Z,101281.00
2022-10-05T15:25:46.996Z,101285.13
2022-10-05T15:36:03.269Z,101267.41
2022-10-05T15:46:40.388Z,101259.09
2022-10-05T15:56:50.180Z,101263.81
2022-10-05T16:07:20.574Z,101272.00
2022-10-05T16:17:49.285Z,101261.84
2022-10-05T16:28:12.612Z,101280.25
2022-10-05T16:38:38.622Z,101281.38
2022-10-05T16:49:04.295Z,101288.47
2022-10-05T16:59:06.911Z,101309.47
2022-10-05T17:09:27.106Z,101325.22
2022-10-05T17:19:47.484Z,101321.88
2022-10-05T17:29:55.751Z,101324.47
2022-10-05T17:39:59.159Z,101330.63
2022-10-05T17:50:19.731Z,101329.84
2022-10-05T18:00:40.950Z,101326.50
2022-10-05T18:11:09.608Z,101323.91
2022-10-05T18:21:14.593Z,101323.91
2022-10-05T18:31:23.636Z,101328.25
2022-10-05T18:41:28.880Z,101333.41
2022-10-05T18:51:48.300Z,101326.50
2022-10-05T19:02:26.394Z,101330.81
2022-10-05T19:12:57.582Z,101323.81
2022-10-05T19:23:25.039Z,101331.50
2022-10-05T19:33:57.164Z,101342.63
2022-10-05T19:44:23.263Z,101352.91
2022-10-05T19:54:29.878Z,101351.91
2022-10-05T20:04:43.380Z,101363.00
2022-10-05T20:15:04.973Z,101373.25
2022-10-05T20:25:18.929Z,101381.75
2022-10-05T20:35:22.276Z,101379.00
2022-10-05T20:45:23.921Z,101390.06
2022-10-05T20:55:29.186Z,101385.47
2022-10-05T21:05:30.878Z,101389.69
2022-10-05T21:15:32.634Z,101379.88
2022-10-05T21:25:34.269Z,101383.97
2022-10-05T21:35:38.145Z,101385.50
2022-10-05T21:45:40.507Z,101377.47
2022-10-05T21:55:45.901Z,101371.28
2022-10-05T22:05:48.404Z,101360.81
2022-10-05T22:15:51.072Z,101365.84
2022-10-05T22:25:53.335Z,101367.63
2022-10-05T22:35:55.530Z,101359.84
2022-10-05T22:45:57.958Z,101353.75
2022-10-05T22:56:15.748Z,101339.97
2022-10-05T23:06:19.622Z,101332.41
2022-10-05T23:16:23.731Z,101323.84
2022-10-05T23:26:26.207Z,101323.03
2022-10-05T23:36:32.328Z,101322.25
2022-10-05T23:46:33.905Z,101313.72
2022-10-05T23:56:35.452Z,101313.81
